createdAt,value
2023-05-18T00:01:00.292Z,87.67
2023-05-18T00:03:47.359Z,87.94
2023-05-18T00:06:33.833Z,87.87
2023-05-18T00:09:20.199Z,87.34
2023-05-18T00:12:07.065Z,87.21
2023-05-18T00:14:54.423Z,89.81
2023-05-18T00:20:37.700Z,89.65
2023-05-18T00:23:24.872Z,88.89
2023-05-18T00:26:10.683Z,89.00
2023-05-18T00:28:56.933Z,90.55
2023-05-18T00:31:45.451Z,91.27
2023-05-18T00:34:32.362Z,90.35
2023-05-18T00:37:18.527Z,89.64
2023-05-18T00:40:12.422Z,90.28
2023-05-18T00:43:05.818Z,91.08
2023-05-18T00:45:58.249Z,91.59
2023-05-18T00:52:15.920Z,91.01
2023-05-18T00:55:09.826Z,89.77
2023-05-18T00:58:02.256Z,90.18
2023-05-18T01:00:56.300Z,89.31
2023-05-18T01:03:49.624Z,89.23
2023-05-18T01:09:58.049Z,89.63
2023-05-18T01:12:55.017Z,89.75
2023-05-18T01:15:52.568Z,89.61
2023-05-18T01:18:54.735Z,90.51
2023-05-18T01:21:55.667Z,89.63
2023-05-18T01:24:49.781Z,89.95
2023-05-18T01:27:46.409Z,90.27
2023-05-18T01:30:42.668Z,89.46
2023-05-18T01:33:36.394Z,91.37
2023-05-18T01:36:54.805Z,91.85
2023-05-18T01:39:47.641Z,90.60
2023-05-18T01:42:45.987Z,89.58
2023-05-18T01:48:55.513Z,90.68
2023-05-18T01:51:49.891Z,89.98
2023-05-18T01:54:39.927Z,89.31
2023-05-18T01:57:34.565Z,90.72
2023-05-18T02:00:28.568Z,90.65
2023-05-18T02:03:22.096Z,89.53
2023-05-18T02:06:15.483Z,89.13
2023-05-18T02:09:08.961Z,89.01
2023-05-18T02:15:31.989Z,88.46
2023-05-18T02:18:26.712Z,89.60
2023-05-18T02:21:19.425Z,88.44
2023-05-18T02:24:12.815Z,88.44
2023-05-18T02:27:06.800Z,89.20
2023-05-18T02:30:24.301Z,88.06
2023-05-18T02:33:19.545Z,88.74
2023-05-18T02:36:49.815Z,89.21
2023-05-18T02:39:43.461Z,89.29
2023-05-18T02:43:04.677Z,89.18
2023-05-18T02:45:57.534Z,91.09
2023-05-18T02:48:51.842Z,90.12
2023-05-18T02:55:03.431Z,89.97
2023-05-18T02:58:14.551Z,90.39
2023-05-18T03:01:41.042Z,89.47
2023-05-18T03:04:37.789Z,90.11
2023-05-18T03:07:32.985Z,89.16
2023-05-18T03:10:26.463Z,89.35
2023-05-18T03:13:19.569Z,90.99
2023-05-18T03:16:13.301Z,91.40
2023-05-18T03:19:06.470Z,90.44
2023-05-18T03:25:33.678Z,90.56
2023-05-18T03:28:27.285Z,90.85
2023-05-18T03:31:20.393Z,90.19
2023-05-18T03:34:13.736Z,90.19
2023-05-18T03:40:20.057Z,89.89
2023-05-18T03:43:15.670Z,88.91
2023-05-18T03:46:09.340Z,90.39
2023-05-18T03:49:03.407Z,90.83
2023-05-18T03:52:02.911Z,92.25
2023-05-18T03:54:56.829Z,91.46
2023-05-18T03:57:49.734Z,90.83
2023-05-18T04:00:43.558Z,89.87
2023-05-18T04:06:55.704Z,89.69
2023-05-18T04:09:49.015Z,89.35
2023-05-18T04:12:41.709Z,90.21
2023-05-18T04:15:35.286Z,91.21
2023-05-18T04:18:30.101Z,91.13
2023-05-18T04:21:23.314Z,89.47
2023-05-18T04:24:16.576Z,90.05
2023-05-18T04:30:30.292Z,91.21
2023-05-18T04:33:23.976Z,90.85
2023-05-18T04:36:21.405Z,90.11
2023-05-18T04:39:14.998Z,90.05
2023-05-18T04:42:21.366Z,89.62
2023-05-18T04:45:17.563Z,90.34
2023-05-18T04:48:10.760Z,90.15
2023-05-18T04:51:04.649Z,89.54
2023-05-18T04:53:58.898Z,90.75
2023-05-18T04:56:51.592Z,89.53
2023-05-18T05:02:57.467Z,88.77
2023-05-18T05:05:50.303Z,89.47
2023-05-18T05:11:59.801Z,90.82
2023-05-18T05:14:52.498Z,91.91
2023-05-18T05:17:47.307Z,91.81
2023-05-18T05:20:40.370Z,94.58
2023-05-18T05:23:33.535Z,95.27
2023-05-18T05:26:26.432Z,88.85
2023-05-18T05:29:21.491Z,85.62
2023-05-18T05:35:25.479Z,74.34
2023-05-18T05:41:43.542Z,64.21
2023-05-18T05:44:39.310Z,60.00
2023-05-18T05:47:32.486Z,55.86
2023-05-18T05:50:25.407Z,51.98
2023-05-18T05:56:32.684Z,44.74
2023-05-18T05:59:25.332Z,45.55
2023-05-18T06:02:19.875Z,44.35
2023-05-18T06:05:13.532Z,44.15
2023-05-18T06:08:06.613Z,42.56
2023-05-18T06:10:59.392Z,44.85
2023-05-18T06:13:53.221Z,41.40
2023-05-18T06:16:46.236Z,42.29
2023-05-18T06:19:41.053Z,42.94
2023-05-18T06:22:33.128Z,38.32
2023-05-18T06:29:08.818Z,37.32
2023-05-18T06:32:20.438Z,38.84
2023-05-18T06:35:20.722Z,38.81
2023-05-18T06:38:13.479Z,42.00
2023-05-18T06:41:06.541Z,40.94
2023-05-18T06:44:01.391Z,38.54
2023-05-18T06:50:16.243Z,38.26
2023-05-18T06:53:10.682Z,38.39
2023-05-18T06:56:04.751Z,41.89
2023-05-18T06:58:58.968Z,39.78
2023-05-18T07:01:53.340Z,39.43
2023-05-18T07:04:48.014Z,37.75
2023-05-18T07:07:40.368Z,39.04
2023-05-18T07:14:10.681Z,37.47
2023-05-18T07:17:31.708Z,39.08
2023-05-18T07:20:26.137Z,36.06
2023-05-18T07:23:19.626Z,36.58
2023-05-18T07:26:12.510Z,37.95
2023-05-18T07:32:13.518Z,40.28
2023-05-18T07:35:06.817Z,40.57
2023-05-18T07:37:59.438Z,40.06
2023-05-18T07:40:52.772Z,38.76
2023-05-18T07:43:45.254Z,39.16
2023-05-18T07:46:38.397Z,40.59
2023-05-18T07:49:32.697Z,39.81
2023-05-18T07:52:25.593Z,36.65
2023-05-18T07:58:30.748Z,40.88
2023-05-18T08:01:27.311Z,41.34
2023-05-18T08:04:20.475Z,42.13
2023-05-18T08:07:14.627Z,39.29
2023-05-18T08:13:23.635Z,37.39
2023-05-18T08:16:16.487Z,38.64
2023-05-18T08:19:09.278Z,36.56
2023-05-18T08:22:02.420Z,39.16
2023-05-18T08:24:58.054Z,38.26
2023-05-18T08:27:50.768Z,37.12
2023-05-18T08:30:43.658Z,34.78
2023-05-18T08:36:47.270Z,39.51
2023-05-18T08:39:40.462Z,37.08
2023-05-18T08:42:49.441Z,36.02
2023-05-18T08:45:46.062Z,32.33
2023-05-18T08:48:44.865Z,33.39
2023-05-18T08:51:40.505Z,28.93
2023-05-18T08:54:33.977Z,32.35
2023-05-18T09:00:40.078Z,32.95
2023-05-18T09:03:32.664Z,29.55
2023-05-18T09:06:29.309Z,27.93
2023-05-18T09:09:23.280Z,30.90
2023-05-18T09:12:17.226Z,29.23
2023-05-18T09:15:11.796Z,30.13
2023-05-18T09:18:05.958Z,31.59
2023-05-18T09:20:58.212Z,32.19
2023-05-18T09:23:51.421Z,32.67
2023-05-18T09:26:44.582Z,31.02
2023-05-18T09:29:33.992Z,29.54
2023-05-18T09:32:27.338Z,30.98
2023-05-18T09:35:22.765Z,33.22
2023-05-18T09:38:17.306Z,30.21
2023-05-18T09:41:11.162Z,35.83
2023-05-18T09:44:08.903Z,34.49
2023-05-18T09:47:01.579Z,35.20
2023-05-18T09:49:57.489Z,40.11
2023-05-18T09:53:27.660Z,34.69
2023-05-18T09:56:21.800Z,34.03
2023-05-18T09:59:16.148Z,34.72
2023-05-18T10:05:27.151Z,33.12
2023-05-18T10:08:19.422Z,34.33
2023-05-18T10:11:13.157Z,35.88
2023-05-18T10:14:06.759Z,38.14
2023-05-18T10:17:14.413Z,37.00
2023-05-18T10:20:40.151Z,42.56
2023-05-18T10:23:34.573Z,38.78
2023-05-18T10:29:46.362Z,34.67
2023-05-18T10:35:40.864Z,35.86
2023-05-18T10:38:28.588Z,35.64
2023-05-18T10:41:14.507Z,38.30
2023-05-18T10:44:03.849Z,37.96
2023-05-18T10:46:51.536Z,39.35
2023-05-18T10:49:38.333Z,42.49
2023-05-18T10:52:26.456Z,39.72
2023-05-18T10:55:13.329Z,37.54
2023-05-18T10:58:03.621Z,36.11
2023-05-18T11:00:51.666Z,36.42
2023-05-18T11:03:39.602Z,36.33
2023-05-18T11:06:25.752Z,37.49
2023-05-18T11:09:23.857Z,38.83
2023-05-18T11:12:41.602Z,36.79
2023-05-18T11:16:06.505Z,40.37
2023-05-18T11:22:13.601Z,44.10
2023-05-18T11:25:09.393Z,40.12
2023-05-18T11:28:05.224Z,40.45
2023-05-18T11:30:57.253Z,37.88
2023-05-18T11:33:49.495Z,38.40
2023-05-18T11:36:46.346Z,42.29
2023-05-18T11:39:51.689Z,41.45
2023-05-18T11:42:44.401Z,42.23
2023-05-18T11:45:53.049Z,38.66
2023-05-18T11:48:45.307Z,42.34
2023-05-18T11:51:58.557Z,37.69
2023-05-18T11:54:53.975Z,35.64
2023-05-18T12:01:01.299Z,38.68
2023-05-18T12:03:54.814Z,40.61
2023-05-18T12:06:47.607Z,36.53
2023-05-18T12:09:41.879Z,37.41
2023-05-18T12:15:45.037Z,36.32
2023-05-18T12:18:39.741Z,37.17
2023-05-18T12:21:32.118Z,37.88
2023-05-18T12:24:24.810Z,36.14
2023-05-18T12:27:18.224Z,40.31
2023-05-18T12:30:11.849Z,39.50
2023-05-18T12:33:06.884Z,37.78
2023-05-18T12:35:59.330Z,41.88
2023-05-18T12:42:15.516Z,36.95
2023-05-18T12:49:01.433Z,39.33
2023-05-18T12:52:25.986Z,37.25
2023-05-18T12:55:21.531Z,39.56
2023-05-18T12:58:18.134Z,38.67
2023-05-18T13:01:12.167Z,37.87
2023-05-18T13:04:11.826Z,38.03
2023-05-18T13:07:04.512Z,39.38
2023-05-18T13:10:01.886Z,36.85
2023-05-18T13:12:58.951Z,37.10
2023-05-18T13:15:51.889Z,34.73
2023-05-18T13:18:47.398Z,34.96
2023-05-18T13:22:04.510Z,34.65
2023-05-18T13:24:52.899Z,36.49
2023-05-18T13:31:13.027Z,34.87
2023-05-18T13:37:31.139Z,41.15
2023-05-18T13:40:25.697Z,39.11
2023-05-18T13:43:18.653Z,35.02
2023-05-18T13:46:11.681Z,35.48
2023-05-18T13:49:42.704Z,36.49
2023-05-18T13:52:35.608Z,36.34
2023-05-18T13:55:30.122Z,36.57
2023-05-18T13:58:23.699Z,33.61
2023-05-18T14:01:17.825Z,34.80
2023-05-18T14:04:10.181Z,36.97
2023-05-18T14:07:02.739Z,37.57
2023-05-18T14:10:32.816Z,38.45
2023-05-18T14:13:26.804Z,36.91
2023-05-18T14:16:56.724Z,37.92
2023-05-18T14:19:49.275Z,35.61
2023-05-18T14:22:41.747Z,39.30
2023-05-18T14:25:34.535Z,37.83
2023-05-18T14:28:30.089Z,35.86
2023-05-18T14:31:22.844Z,37.55
2023-05-18T14:34:15.366Z,35.30
2023-05-18T14:37:08.680Z,37.38
2023-05-18T14:40:01.771Z,37.72
2023-05-18T14:42:54.524Z,35.09
2023-05-18T14:46:07.558Z,36.37
2023-05-18T14:49:01.656Z,38.82
2023-05-18T14:51:55.052Z,36.62
2023-05-18T14:54:48.338Z,34.69
2023-05-18T14:57:41.519Z,34.15
2023-05-18T15:00:35.126Z,35.20
2023-05-18T15:03:29.065Z,35.78
2023-05-18T15:06:21.376Z,35.92
2023-05-18T15:09:15.047Z,38.46
2023-05-18T15:12:08.004Z,34.95
2023-05-18T15:15:00.273Z,36.31
2023-05-18T15:17:52.801Z,37.65
2023-05-18T15:20:47.567Z,35.96
2023-05-18T15:23:40.152Z,37.72
2023-05-18T15:26:32.660Z,37.74
2023-05-18T15:29:25.858Z,38.02
2023-05-18T15:32:18.346Z,37.75
2023-05-18T15:35:11.728Z,37.65
2023-05-18T15:38:05.809Z,36.60
2023-05-18T15:40:58.295Z,37.12
2023-05-18T15:43:50.426Z,37.10
2023-05-18T15:46:43.571Z,37.44
2023-05-18T15:49:36.460Z,41.11
2023-05-18T15:52:29.740Z,41.08
2023-05-18T15:55:24.218Z,38.34
2023-05-18T15:58:16.815Z,42.24
2023-05-18T16:01:09.668Z,41.94
2023-05-18T16:07:14.745Z,45.36
2023-05-18T16:10:08.363Z,44.20
2023-05-18T16:13:05.733Z,45.46
2023-05-18T16:19:10.851Z,44.99
2023-05-18T16:22:03.250Z,45.12
2023-05-18T16:24:53.356Z,47.15
2023-05-18T16:27:46.351Z,44.09
2023-05-18T16:30:40.746Z,48.61
2023-05-18T16:33:33.138Z,45.87
2023-05-18T16:36:26.092Z,46.81
2023-05-18T16:39:18.430Z,47.54
2023-05-18T16:42:12.233Z,44.34
2023-05-18T16:45:05.046Z,44.55
2023-05-18T16:48:00.633Z,46.62
2023-05-18T16:50:53.562Z,46.32
2023-05-18T16:53:46.548Z,47.12
2023-05-18T16:56:39.318Z,46.69
2023-05-18T16:59:32.914Z,47.18
2023-05-18T17:02:25.614Z,46.33
2023-05-18T17:05:21.549Z,47.27
2023-05-18T17:08:15.002Z,45.40
2023-05-18T17:11:07.819Z,47.54
2023-05-18T17:14:01.503Z,47.59
2023-05-18T17:16:54.400Z,47.66
2023-05-18T17:20:13.060Z,47.62
2023-05-18T17:23:06.958Z,49.22
2023-05-18T17:26:05.941Z,47.68
2023-05-18T17:29:36.732Z,48.13
2023-05-18T17:32:29.680Z,49.08
2023-05-18T17:35:39.838Z,48.95
2023-05-18T17:38:30.797Z,49.55
2023-05-18T17:41:25.647Z,48.62
2023-05-18T17:44:18.452Z,50.35
2023-05-18T17:47:11.152Z,49.09
2023-05-18T17:50:28.250Z,49.72
2023-05-18T17:53:20.679Z,49.57
2023-05-18T17:56:28.270Z,49.34
2023-05-18T17:59:21.654Z,50.22
2023-05-18T18:05:35.523Z,48.16
2023-05-18T18:08:30.325Z,47.98
2023-05-18T18:11:24.511Z,49.20
2023-05-18T18:14:17.487Z,49.46
2023-05-18T18:17:11.674Z,48.42
2023-05-18T18:20:05.605Z,48.83
2023-05-18T18:26:09.869Z,50.35
2023-05-18T18:29:02.800Z,49.45
2023-05-18T18:32:01.737Z,51.32
2023-05-18T18:34:56.254Z,50.74
2023-05-18T18:37:48.540Z,52.58
2023-05-18T18:40:41.731Z,52.92
2023-05-18T18:43:38.539Z,52.50
2023-05-18T18:46:31.711Z,52.32
2023-05-18T18:49:24.416Z,54.17
2023-05-18T18:56:05.267Z,57.73
2023-05-18T18:59:08.960Z,57.49
2023-05-18T19:02:01.707Z,59.12
2023-05-18T19:04:54.427Z,61.15
2023-05-18T19:07:49.154Z,63.32
2023-05-18T19:10:41.511Z,64.77
2023-05-18T19:13:35.621Z,66.71
2023-05-18T19:16:28.734Z,67.16
2023-05-18T19:22:28.358Z,67.82
2023-05-18T19:25:22.232Z,68.58
2023-05-18T19:28:14.877Z,69.36
2023-05-18T19:31:10.228Z,68.15
2023-05-18T19:34:02.365Z,69.33
2023-05-18T19:36:55.414Z,70.53
2023-05-18T19:39:48.726Z,71.11
2023-05-18T19:43:06.474Z,72.17
2023-05-18T19:45:59.475Z,73.26
2023-05-18T19:49:06.614Z,74.94
2023-05-18T19:52:00.838Z,76.93
2023-05-18T19:58:39.663Z,75.51
2023-05-18T20:01:33.336Z,76.14
2023-05-18T20:04:28.290Z,79.63
2023-05-18T20:07:23.872Z,80.91
2023-05-18T20:10:16.572Z,82.07
2023-05-18T20:13:34.442Z,81.13
2023-05-18T20:16:28.989Z,81.37
2023-05-18T20:22:52.090Z,80.25
2023-05-18T20:25:47.823Z,80.36
2023-05-18T20:29:17.748Z,81.29
2023-05-18T20:32:10.591Z,83.45
2023-05-18T20:35:19.665Z,82.61
2023-05-18T20:38:12.583Z,82.95
2023-05-18T20:44:52.847Z,82.07
2023-05-18T20:47:45.525Z,84.65
2023-05-18T20:50:39.060Z,86.75
2023-05-18T20:53:33.050Z,86.79
2023-05-18T20:56:26.535Z,85.96
2023-05-18T20:59:19.867Z,85.45
2023-05-18T21:02:12.529Z,84.12
2023-05-18T21:08:21.800Z,85.24
2023-05-18T21:14:33.157Z,85.85
2023-05-18T21:17:25.555Z,86.36
2023-05-18T21:20:18.462Z,85.64
2023-05-18T21:23:11.173Z,84.97
2023-05-18T21:26:03.734Z,84.65
2023-05-18T21:28:56.784Z,86.07
2023-05-18T21:31:50.970Z,87.96
2023-05-18T21:34:43.957Z,87.73
2023-05-18T21:37:36.391Z,87.37
2023-05-18T21:40:30.027Z,87.73
2023-05-18T21:47:09.994Z,88.23
2023-05-18T21:50:35.494Z,89.36
2023-05-18T21:53:28.691Z,89.93
2023-05-18T21:56:38.659Z,89.94
2023-05-18T21:59:28.969Z,89.29
2023-05-18T22:02:23.141Z,89.48
2023-05-18T22:05:15.563Z,88.95
2023-05-18T22:08:08.555Z,88.12
2023-05-18T22:11:02.186Z,87.36
2023-05-18T22:13:55.190Z,86.92
2023-05-18T22:16:47.670Z,86.36
2023-05-18T22:19:42.973Z,87.10
2023-05-18T22:22:35.556Z,87.58
2023-05-18T22:25:28.600Z,87.72
2023-05-18T22:28:22.208Z,88.14
2023-05-18T22:31:14.474Z,87.92
2023-05-18T22:34:10.957Z,86.97
2023-05-18T22:37:04.792Z,86.42
2023-05-18T22:39:57.545Z,86.22
2023-05-18T22:42:50.699Z,86.33
2023-05-18T22:45:43.504Z,86.34
2023-05-18T22:51:53.138Z,87.18
2023-05-18T22:58:03.185Z,89.71
2023-05-18T23:04:07.863Z,91.83
2023-05-18T23:07:01.635Z,91.46
2023-05-18T23:09:54.686Z,91.61
2023-05-18T23:12:48.250Z,91.60
2023-05-18T23:15:41.691Z,90.52
2023-05-18T23:18:34.347Z,89.56
2023-05-18T23:21:27.519Z,88.92
2023-05-18T23:24:20.786Z,90.25
2023-05-18T23:27:13.721Z,90.42
2023-05-18T23:30:07.706Z,91.02
2023-05-18T23:33:02.701Z,90.88
2023-05-18T23:39:03.162Z,90.17
2023-05-18T23:41:49.677Z,89.07
2023-05-18T23:44:36.315Z,88.70
2023-05-18T23:47:22.697Z,88.06
2023-05-18T23:50:11.354Z,88.43
2023-05-18T23:53:01.194Z,88.17
2023-05-18T23:56:07.587Z,87.69
2023-05-18T23:58:54.416Z,87.58
